createdAt,value
2023-03-26T00:04:05.248Z,100488.41
2023-03-26T00:09:26.899Z,100499.69
2023-03-26T00:14:48.028Z,100495.69
2023-03-26T00:20:09.831Z,100501.38
2023-03-26T00:25:31.336Z,100512.47
2023-03-26T00:31:02.709Z,100505.34
2023-03-26T00:36:26.046Z,100520.84
2023-03-26T00:41:47.448Z,100514.13
2023-03-26T00:47:08.860Z,100520.84
2023-03-26T00:52:30.746Z,100534.13
2023-03-26T00:57:51.869Z,100531.41
2023-03-26T01:03:27.717Z,100537.09
2023-03-26T01:08:51.665Z,100541.56
2023-03-26T01:14:18.973Z,100529.19
2023-03-26T01:20:05.814Z,100525.31
2023-03-26T01:25:34.469Z,100523.03
2023-03-26T01:31:24.251Z,100515.41
2023-03-26T01:37:25.366Z,100520.63
2023-03-26T01:43:22.494Z,100500.28
2023-03-26T01:48:46.972Z,100505.34
2023-03-26T01:54:17.899Z,100500.72
2023-03-26T02:00:08.339Z,100502.97
2023-03-26T02:05:44.293Z,100501.91
2023-03-26T02:11:16.498Z,100497.47
2023-03-26T02:16:38.129Z,100496.84
2023-03-26T02:21:59.722Z,100497.72
2023-03-26T02:27:22.475Z,100483.41
2023-03-26T02:32:43.870Z,100489.66
2023-03-26T02:38:05.841Z,100480.16
2023-03-26T02:43:27.775Z,100484.25
2023-03-26T02:48:49.161Z,100479.22
2023-03-26T02:54:16.143Z,100475.03
2023-03-26T02:59:49.381Z,100469.31
2023-03-26T03:05:29.292Z,100478.81
2023-03-26T03:11:13.112Z,100469.00
2023-03-26T03:16:41.150Z,100461.56
2023-03-26T03:22:06.296Z,100460.50
2023-03-26T03:27:29.031Z,100449.59
2023-03-26T03:33:02.572Z,100447.56
2023-03-26T03:38:24.878Z,100447.97
2023-03-26T03:43:48.168Z,100444.44
2023-03-26T03:49:14.763Z,100449.03
2023-03-26T03:54:36.372Z,100444.28
2023-03-26T04:00:07.545Z,100434.56
2023-03-26T04:05:36.274Z,100426.03
2023-03-26T04:10:57.718Z,100436.75
2023-03-26T04:16:39.296Z,100435.19
2023-03-26T04:22:01.570Z,100436.78
2023-03-26T04:27:29.790Z,100427.69
2023-03-26T04:33:04.380Z,100415.97
2023-03-26T04:38:45.118Z,100418.16
2023-03-26T04:44:08.552Z,100416.34
2023-03-26T04:49:55.118Z,100429.94
2023-03-26T04:55:45.250Z,100421.59
2023-03-26T05:01:15.322Z,100425.75
2023-03-26T05:06:42.954Z,100437.22
2023-03-26T05:12:15.194Z,100442.78
2023-03-26T05:17:51.435Z,100429.38
2023-03-26T05:23:21.688Z,100435.06
2023-03-26T05:28:49.103Z,100436.25
2023-03-26T05:34:30.388Z,100424.47
2023-03-26T05:39:55.665Z,100418.09
2023-03-26T05:45:39.119Z,100422.06
2023-03-26T05:51:18.277Z,100413.03
2023-03-26T05:56:51.556Z,100424.63
2023-03-26T06:02:42.459Z,100422.28
2023-03-26T06:08:18.519Z,100416.50
2023-03-26T06:13:45.859Z,100415.66
2023-03-26T06:19:07.409Z,100407.53
2023-03-26T06:24:47.904Z,100408.69
2023-03-26T06:30:33.627Z,100408.00
2023-03-26T06:36:01.928Z,100402.81
2023-03-26T06:41:24.293Z,100410.88
2023-03-26T06:47:08.525Z,100411.09
2023-03-26T06:52:44.763Z,100407.28
2023-03-26T06:58:24.690Z,100408.84
2023-03-26T07:04:04.787Z,100405.13
2023-03-26T07:09:45.261Z,100405.78
2023-03-26T07:15:25.463Z,100390.78
2023-03-26T07:21:16.183Z,100389.25
2023-03-26T07:27:36.024Z,100392.22
2023-03-26T07:33:18.625Z,100380.41
2023-03-26T07:38:58.453Z,100379.25
2023-03-26T07:44:53.607Z,100378.84
2023-03-26T07:50:33.987Z,100360.28
2023-03-26T07:56:14.674Z,100358.47
2023-03-26T08:02:42.185Z,100373.56
2023-03-26T08:09:02.908Z,100367.31
2023-03-26T08:15:13.442Z,100365.19
2023-03-26T08:20:48.017Z,100362.94
2023-03-26T08:26:11.012Z,100369.69
2023-03-26T08:31:37.063Z,100362.00
2023-03-26T08:36:58.392Z,100366.94
2023-03-26T08:42:25.840Z,100377.38
2023-03-26T08:48:22.850Z,100377.47
2023-03-26T08:53:52.930Z,100382.31
2023-03-26T08:59:55.842Z,100367.72
2023-03-26T09:06:09.640Z,100373.13
2023-03-26T09:12:06.184Z,100373.66
2023-03-26T09:18:18.176Z,100368.38
2023-03-26T09:24:07.068Z,100369.63
2023-03-26T09:29:59.562Z,100360.44
2023-03-26T09:35:42.044Z,100374.88
2023-03-26T09:41:36.761Z,100368.03
2023-03-26T09:47:19.902Z,100371.97
2023-03-26T09:53:32.649Z,100380.97
2023-03-26T09:59:31.820Z,100384.91
2023-03-26T10:05:24.039Z,100391.94
2023-03-26T10:11:21.435Z,100382.59
2023-03-26T10:17:15.471Z,100379.75
2023-03-26T10:23:19.605Z,100386.78
2023-03-26T10:28:53.020Z,100383.97
2023-03-26T10:34:38.365Z,100386.28
2023-03-26T10:40:24.307Z,100389.06
2023-03-26T10:45:48.660Z,100392.59
2023-03-26T10:51:28.160Z,100395.38
2023-03-26T10:56:53.036Z,100404.28
2023-03-26T11:02:38.710Z,100413.81
2023-03-26T11:08:18.959Z,100412.44
2023-03-26T11:14:02.981Z,100408.06
2023-03-26T11:19:53.184Z,100412.66
2023-03-26T11:26:10.715Z,100412.44
2023-03-26T11:32:01.621Z,100412.94
2023-03-26T11:37:41.720Z,100416.19
2023-03-26T11:43:08.286Z,100420.16
2023-03-26T11:48:45.349Z,100419.88
2023-03-26T11:54:10.917Z,100424.91
2023-03-26T12:00:02.170Z,100418.72
2023-03-26T12:05:51.003Z,100411.56
2023-03-26T12:11:12.915Z,100421.22
2023-03-26T12:16:35.061Z,100419.56
2023-03-26T12:21:56.187Z,100418.66
2023-03-26T12:27:18.642Z,100424.69
2023-03-26T12:32:46.184Z,100432.00
2023-03-26T12:38:32.744Z,100434.84
2023-03-26T12:44:51.503Z,100434.72
2023-03-26T12:49:36.799Z,100436.72
2023-03-26T12:55:22.482Z,100443.22
2023-03-26T13:01:19.497Z,100440.91
2023-03-26T13:07:03.263Z,100442.19
2023-03-26T13:12:55.510Z,100437.75
2023-03-26T13:18:41.689Z,100444.31
2023-03-26T13:24:44.631Z,100433.81
2023-03-26T13:30:37.829Z,100446.56
2023-03-26T13:36:23.718Z,100450.19
2023-03-26T13:42:43.471Z,100452.25
2023-03-26T13:48:32.829Z,100452.41
2023-03-26T13:54:16.089Z,100453.72
2023-03-26T14:00:01.227Z,100449.31
2023-03-26T14:05:39.795Z,100446.91
2023-03-26T14:11:34.317Z,100477.13
2023-03-26T14:17:04.974Z,100482.38
2023-03-26T14:22:50.575Z,100486.50
2023-03-26T14:29:03.634Z,100476.34
2023-03-26T14:35:23.606Z,100484.81
2023-03-26T14:41:17.006Z,100488.94
2023-03-26T14:47:07.345Z,100498.41
2023-03-26T14:53:01.318Z,100500.03
2023-03-26T14:58:41.302Z,100492.63
2023-03-26T15:04:30.417Z,100514.84
2023-03-26T15:10:15.143Z,100509.66
2023-03-26T15:16:17.860Z,100516.97
2023-03-26T15:22:14.567Z,100526.38
2023-03-26T15:27:57.545Z,100547.22
2023-03-26T15:33:33.717Z,100552.88
2023-03-26T15:39:25.832Z,100549.69
2023-03-26T15:45:28.944Z,100557.78
2023-03-26T15:51:24.789Z,100573.00
2023-03-26T15:57:18.931Z,100586.13
2023-03-26T16:02:45.988Z,100597.75
2023-03-26T16:08:25.890Z,100589.16
2023-03-26T16:14:09.885Z,100606.56
2023-03-26T16:19:59.893Z,100619.75
2023-03-26T16:25:28.900Z,100622.88
2023-03-26T16:31:38.195Z,100630.72
2023-03-26T16:37:01.263Z,100647.53
2023-03-26T16:42:38.544Z,100655.94
2023-03-26T16:48:35.062Z,100650.50
2023-03-26T16:54:43.807Z,100670.28
2023-03-26T17:00:11.212Z,100687.38
2023-03-26T17:06:06.159Z,100694.94
2023-03-26T17:12:00.614Z,100706.53
2023-03-26T17:17:37.628Z,100713.84
2023-03-26T17:23:20.137Z,100731.28
2023-03-26T17:29:20.721Z,100742.25
2023-03-26T17:34:50.998Z,100760.66
2023-03-26T17:40:56.696Z,100764.19
2023-03-26T17:46:27.241Z,100767.66
2023-03-26T17:52:01.884Z,100773.44
2023-03-26T17:57:49.792Z,100793.78
2023-03-26T18:03:23.425Z,100804.34
2023-03-26T18:08:50.278Z,100812.69
2023-03-26T18:14:39.372Z,100834.47
2023-03-26T18:20:06.708Z,100832.25
2023-03-26T18:25:32.292Z,100836.91
2023-03-26T18:30:53.722Z,100860.53
2023-03-26T18:36:17.026Z,100859.06
2023-03-26T18:41:40.514Z,100869.50
2023-03-26T18:47:06.598Z,100879.34
2023-03-26T18:52:29.655Z,100878.81
2023-03-26T18:57:51.216Z,100894.22
2023-03-26T19:03:15.034Z,100899.88
2023-03-26T19:08:39.531Z,100904.91
2023-03-26T19:14:08.264Z,100908.03
2023-03-26T19:19:36.827Z,100916.56
2023-03-26T19:25:04.055Z,100921.94
2023-03-26T19:30:35.201Z,100928.34
2023-03-26T19:36:26.478Z,100933.75
2023-03-26T19:41:52.249Z,100937.28
2023-03-26T19:47:17.739Z,100945.59
2023-03-26T19:52:39.012Z,100955.50
2023-03-26T19:58:00.418Z,100957.28
2023-03-26T20:03:30.101Z,100972.09
2023-03-26T20:08:52.141Z,100981.50
2023-03-26T20:14:18.984Z,101002.78
2023-03-26T20:19:41.061Z,100973.91
2023-03-26T20:25:02.270Z,100978.69
2023-03-26T20:30:37.004Z,100981.59
2023-03-26T20:35:59.813Z,100986.41
2023-03-26T20:41:24.265Z,101012.63
2023-03-26T20:46:47.813Z,101019.84
2023-03-26T20:52:11.531Z,101027.91
2023-03-26T20:57:32.812Z,101030.06
2023-03-26T21:02:57.840Z,101036.81
2023-03-26T21:08:20.718Z,101039.72
2023-03-26T21:13:56.017Z,101050.25
2023-03-26T21:19:18.147Z,101064.38
2023-03-26T21:24:58.293Z,101066.97
2023-03-26T21:30:20.308Z,101073.69
2023-03-26T21:35:42.192Z,101081.41
2023-03-26T21:41:04.619Z,101083.00
2023-03-26T21:46:26.799Z,101095.97
2023-03-26T21:51:48.243Z,101095.19
2023-03-26T21:57:33.693Z,101112.81
2023-03-26T22:03:32.851Z,101123.47
2023-03-26T22:08:54.606Z,101126.66
2023-03-26T22:14:16.170Z,101142.47
2023-03-26T22:19:37.709Z,101146.03
2023-03-26T22:24:59.086Z,101153.16
2023-03-26T22:30:23.204Z,101159.25
2023-03-26T22:35:44.891Z,101165.53
2023-03-26T22:41:06.604Z,101185.16
2023-03-26T22:46:28.166Z,101182.50
2023-03-26T22:51:49.559Z,101186.22
2023-03-26T22:57:10.979Z,101194.91
2023-03-26T23:02:32.593Z,101212.28
2023-03-26T23:07:54.154Z,101198.47
2023-03-26T23:13:15.490Z,101201.47
2023-03-26T23:18:37.093Z,101211.63
2023-03-26T23:23:58.771Z,101230.50
2023-03-26T23:29:20.214Z,101236.84
2023-03-26T23:34:41.507Z,101240.97
2023-03-26T23:40:16.824Z,101251.38
2023-03-26T23:45:38.788Z,101253.81
2023-03-26T23:51:03.445Z,101270.69
2023-03-26T23:56:26.105Z,101276.34
